This is the latest recevied weather packets stored in our database for station/object NY3Q. If no packets are shown the sender has not sent any weather packets the latest 10 day(s).
| Time | Temp. | Humidity | Pressure | Rain* | Wind** | Luminosity | Snow |
|---|---|---|---|---|---|---|---|
| 1777566147 | 31.67° C | 48% | 1010.8 hPa | 0 mm | - | 625 W/m² | - |
| 1777565847 | 31.11° C | 50% | 1010.8 hPa | 0 mm | - | 615 W/m² | - |
| 1777565544 | 31.11° C | 49% | 1011.1 hPa | 0 mm | - | 616 W/m² | - |
| 1777565241 | 30.56° C | 53% | 1011.1 hPa | 0 mm | - | 615 W/m² | - |
| 1777564937 | 30.56° C | 53% | 1011 hPa | 0 mm | - | 591 W/m² | - |
| 1777564632 | 30.56° C | 54% | 1011.2 hPa | 0 mm | - | 615 W/m² | - |
| 1777564328 | 30° C | 54% | 1011.2 hPa | 0 mm | - | 602 W/m² | - |
| 1777564024 | 30° C | 57% | 1011.3 hPa | 0 mm | - | 657 W/m² | - |
| 1777563720 | 28.89° C | 61% | 1011.1 hPa | 0 mm | - | 597 W/m² | - |
| 1777563416 | 28.89° C | 61% | 1011.2 hPa | 0 mm | - | 343 W/m² | - |
| 1777563111 | 28.89° C | 61% | 1011.4 hPa | 0 mm | - | 307 W/m² | - |
| 1777562806 | 29.44° C | 61% | 1011.3 hPa | 0 mm | - | 367 W/m² | - |
| 1777562505 | 29.44° C | 61% | 1011.3 hPa | 0 mm | - | 331 W/m² | - |
| 1777562202 | 30° C | 60% | 1011.2 hPa | 0 mm | - | 345 W/m² | - |
| 1777561900 | 29.44° C | 62% | 1011.1 hPa | 0 mm | - | 672 W/m² | - |
| 1777561596 | 28.89° C | 65% | 1011.4 hPa | 0 mm | - | 584 W/m² | - |
| 1777561293 | 28.33° C | 65% | 1011.1 hPa | 0 mm | - | 524 W/m² | - |
| 1777560992 | 27.78° C | 67% | 1011.4 hPa | 0 mm | - | 447 W/m² | - |
| 1777560688 | 27.22° C | 69% | 1011.2 hPa | 0 mm | - | 499 W/m² | - |
| 1777560386 | 26.67° C | 70% | 1011.2 hPa | 0 mm | - | 293 W/m² | - |
| 1777560084 | 26.67° C | 71% | 1011.3 hPa | 0 mm | - | 248 W/m² | - |
| 1777559779 | 26.67° C | 71% | 1011.1 hPa | 0 mm | - | 247 W/m² | - |
| 1777559476 | 26.67° C | 71% | 1011.2 hPa | 0 mm | - | 210 W/m² | - |
| 1777559174 | 26.67° C | 73% | 1011.2 hPa | 0 mm | - | 319 W/m² | - |
| 1777558873 | 26.67° C | 75% | 1011.1 hPa | 0 mm | - | 255 W/m² | - |
* Rain latest hour (hover to see other rain measurements)
** Current wind speed in m/s (hover to see current wind gust speed)